sensor_id;sensor_type;location;lat;lon;timestamp;P1;P4;P2;P0;N10;N4;N25;N1;N05;TS
78792;SPS30;68134;51.984;5.652;2023-11-19T00:00:27;7.2;7.2;7.2;6.9;;;;1.0;108.0;
78792;SPS30;68134;51.984;5.652;2023-11-19T00:02:56;6.2;6.2;6.2;6.0;;;;1.0;107.0;
78792;SPS30;68134;51.984;5.652;2023-11-19T00:05:25;6.3;6.3;6.3;6.0;;;;1.0;107.0;
78792;SPS30;68134;51.984;5.652;2023-11-19T00:07:55;6.7;6.7;6.7;6.4;;;;1.0;108.0;
78792;SPS30;68134;51.984;5.652;2023-11-19T00:10:23;6.2;6.2;6.2;6.0;;;;1.0;101.0;
78792;SPS30;68134;51.984;5.652;2023-11-19T00:12:52;5.9;5.9;5.9;5.7;;;;1.0;89.0;
78792;SPS30;68134;51.984;5.652;2023-11-19T00:15:23;6.1;6.1;6.1;5.8;;;;1.0;93.0;
78792;SPS30;68134;51.984;5.652;2023-11-19T00:17:52;5.1;5.1;5.1;4.9;;;;1.0;90.0;
78792;SPS30;68134;51.984;5.652;2023-11-19T00:20:20;6.1;6.1;6.1;5.8;;;;1.0;81.0;
78792;SPS30;68134;51.984;5.652;2023-11-19T00:22:50;5.1;5.1;5.1;4.9;;;;1.0;75.0;
78792;SPS30;68134;51.984;5.652;2023-11-19T00:25:19;6.4;6.4;6.4;6.1;;;;1.0;74.0;
78792;SPS30;68134;51.984;5.652;2023-11-19T00:27:49;5.7;5.7;5.6;5.3;;;;1.0;70.0;
78792;SPS30;68134;51.984;5.652;2023-11-19T00:30:19;5.1;5.1;5.1;4.9;;;;1.0;67.0;
78792;SPS30;68134;51.984;5.652;2023-11-19T00:32:48;5.1;5.1;5.1;4.9;;;;1.0;68.0;
78792;SPS30;68134;51.984;5.652;2023-11-19T00:35:16;5.9;5.8;5.6;5.1;;;;1.0;66.0;
78792;SPS30;68134;51.984;5.652;2023-11-19T00:37:45;5.3;5.3;5.3;5.1;;;;1.0;59.0;
78792;SPS30;68134;51.984;5.652;2023-11-19T00:40:14;5.6;5.5;5.3;4.8;;;;1.0;59.0;
78792;SPS30;68134;51.984;5.652;2023-11-19T00:42:44;5.5;5.4;5.2;4.7;;;;1.0;61.0;
78792;SPS30;68134;51.984;5.652;2023-11-19T00:45:13;5.6;5.6;5.5;5.2;;;;1.0;61.0;
78792;SPS30;68134;51.984;5.652;2023-11-19T00:47:42;5.6;5.6;5.6;5.3;;;;1.0;60.0;
78792;SPS30;68134;51.984;5.652;2023-11-19T00:50:11;6.0;6.0;5.8;5.3;;;;1.0;60.0;
78792;SPS30;68134;51.984;5.652;2023-11-19T00:52:40;6.2;6.0;5.8;5.2;;;;1.0;61.0;
78792;SPS30;68134;51.984;5.652;2023-11-19T00:55:08;5.6;5.5;5.3;4.9;;;;1.0;61.0;
78792;SPS30;68134;51.984;5.652;2023-11-19T00:57:37;5.7;5.5;5.3;4.7;;;;1.0;61.0;
78792;SPS30;68134;51.984;5.652;2023-11-19T01:00:08;5.9;5.7;5.4;4.7;;;;1.0;60.0;
78792;SPS30;68134;51.984;5.652;2023-11-19T01:02:42;6.1;5.9;5.6;5.0;;;;1.0;60.0;
78792;SPS30;68134;51.984;5.652;2023-11-19T01:05:11;5.9;5.8;5.4;4.8;;;;1.0;60.0;
78792;SPS30;68134;51.984;5.652;2023-11-19T01:07:41;6.2;6.1;5.8;5.2;;;;1.0;60.0;
78792;SPS30;68134;51.984;5.652;2023-11-19T01:10:11;6.1;6.0;5.7;5.2;;;;1.0;61.0;
78792;SPS30;68134;51.984;5.652;2023-11-19T01:12:39;6.0;5.8;5.5;4.8;;;;1.0;60.0;
78792;SPS30;68134;51.984;5.652;2023-11-19T01:15:10;6.1;6.0;5.6;4.9;;;;1.0;57.0;
78792;SPS30;68134;51.984;5.652;2023-11-19T01:17:39;6.1;5.9;5.6;5.0;;;;2.0;54.0;
78792;SPS30;68134;51.984;5.652;2023-11-19T01:20:08;6.3;6.1;5.7;5.0;;;;2.0;54.0;
78792;SPS30;68134;51.984;5.652;2023-11-19T01:22:39;6.5;6.3;5.8;4.9;;;;2.0;55.0;
78792;SPS30;68134;51.984;5.652;2023-11-19T01:25:09;6.4;6.1;5.6;4.7;;;;2.0;54.0;
78792;SPS30;68134;51.984;5.652;2023-11-19T01:27:38;6.5;6.2;5.6;4.7;;;;2.0;54.0;
78792;SPS30;68134;51.984;5.652;2023-11-19T01:30:07;7.0;6.8;6.2;5.3;;;;2.0;54.0;
78792;SPS30;68134;51.984;5.652;2023-11-19T01:32:39;6.6;6.3;5.6;4.6;;;;2.0;54.0;
78792;SPS30;68134;51.984;5.652;2023-11-19T01:35:08;6.7;6.4;5.7;4.6;;;;2.0;54.0;
78792;SPS30;68134;51.984;5.652;2023-11-19T01:37:37;7.5;7.1;6.2;4.9;;;;2.0;56.0;
78792;SPS30;68134;51.984;5.652;2023-11-19T01:40:06;6.7;6.3;5.5;4.3;;;;2.0;58.0;
78792;SPS30;68134;51.984;5.652;2023-11-19T01:42:38;7.8;7.3;6.3;4.8;;;;2.0;57.0;
78792;SPS30;68134;51.984;5.652;2023-11-19T01:45:07;6.5;6.1;5.3;4.1;;;;2.0;53.0;
78792;SPS30;68134;51.984;5.652;2023-11-19T01:47:36;6.7;6.3;5.4;4.2;;;;2.0;51.0;
78792;SPS30;68134;51.984;5.652;2023-11-19T01:50:07;7.7;7.2;6.1;4.5;;;;2.0;51.0;
78792;SPS30;68134;51.984;5.652;2023-11-19T01:52:36;6.8;6.3;5.4;4.1;;;;2.0;54.0;
78792;SPS30;68134;51.984;5.652;2023-11-19T01:55:08;7.8;7.3;6.1;4.5;;;;2.0;55.0;
78792;SPS30;68134;51.984;5.652;2023-11-19T01:57:38;6.2;5.8;4.9;3.6;;;;2.0;53.0;
78792;SPS30;68134;51.984;5.652;2023-11-19T02:00:08;6.8;6.3;5.3;4.0;;;;2.0;53.0;
78792;SPS30;68134;51.984;5.652;2023-11-19T02:02:39;8.8;8.1;6.7;4.7;;;;2.0;52.0;
78792;SPS30;68134;51.984;5.652;2023-11-19T02:05:09;7.8;7.2;6.0;4.4;;;;2.0;51.0;
78792;SPS30;68134;51.984;5.652;2023-11-19T02:07:39;7.8;7.2;5.9;4.1;;;;2.0;42.0;
78792;SPS30;68134;51.984;5.652;2023-11-19T02:10:08;9.5;8.7;6.9;4.6;;;;2.0;35.0;
78792;SPS30;68134;51.984;5.652;2023-11-19T02:12:41;9.2;8.4;6.7;4.4;;;;2.0;36.0;
78792;SPS30;68134;51.984;5.652;2023-11-19T02:15:11;9.1;8.2;6.4;4.0;;;;2.0;35.0;
78792;SPS30;68134;51.984;5.652;2023-11-19T02:17:39;9.6;8.7;6.8;4.2;;;;2.0;36.0;
78792;SPS30;68134;51.984;5.652;2023-11-19T02:20:10;9.7;8.7;6.7;4.0;;;;2.0;39.0;
78792;SPS30;68134;51.984;5.652;2023-11-19T02:22:41;11.0;9.9;7.5;4.3;;;;2.0;40.0;
78792;SPS30;68134;51.984;5.652;2023-11-19T02:25:12;10.4;9.4;7.2;4.3;;;;2.0;39.0;
78792;SPS30;68134;51.984;5.652;2023-11-19T02:27:56;10.8;9.7;7.3;4.3;;;;2.0;37.0;
78792;SPS30;68134;51.984;5.652;2023-11-19T02:30:26;10.5;9.4;7.2;4.2;;;;2.0;34.0;
78792;SPS30;68134;51.984;5.652;2023-11-19T02:32:58;11.4;10.2;7.6;4.3;;;;2.0;33.0;
78792;SPS30;68134;51.984;5.652;2023-11-19T02:35:31;11.4;10.2;7.8;4.5;;;;2.0;32.0;
78792;SPS30;68134;51.984;5.652;2023-11-19T02:38:01;11.8;10.5;7.8;4.2;;;;2.0;28.0;
78792;SPS30;68134;51.984;5.652;2023-11-19T02:40:30;14.8;13.1;9.6;5.0;;;;2.0;27.0;
78792;SPS30;68134;51.984;5.652;2023-11-19T02:42:58;12.1;10.8;8.1;4.6;;;;2.0;27.0;
78792;SPS30;68134;51.984;5.652;2023-11-19T02:45:30;12.4;11.1;8.3;4.6;;;;2.0;25.0;
78792;SPS30;68134;51.984;5.652;2023-11-19T02:47:59;12.7;11.3;8.2;4.3;;;;2.0;24.0;
78792;SPS30;68134;51.984;5.652;2023-11-19T02:50:32;13.8;12.3;9.0;4.9;;;;2.0;21.0;
78792;SPS30;68134;51.984;5.652;2023-11-19T02:53:01;12.0;10.7;7.8;4.1;;;;2.0;19.0;
78792;SPS30;68134;51.984;5.652;2023-11-19T02:55:30;13.8;12.2;8.9;4.6;;;;2.0;19.0;
78792;SPS30;68134;51.984;5.652;2023-11-19T02:58:04;13.1;11.6;8.4;4.3;;;;2.0;18.0;
78792;SPS30;68134;51.984;5.652;2023-11-19T03:00:39;13.2;11.7;8.5;4.4;;;;2.0;16.0;
78792;SPS30;68134;51.984;5.652;2023-11-19T03:03:13;15.3;13.5;9.7;4.8;;;;3.0;15.0;
78792;SPS30;68134;51.984;5.652;2023-11-19T03:05:46;17.5;15.5;11.2;5.7;;;;3.0;14.0;
78792;SPS30;68134;51.984;5.652;2023-11-19T03:08:16;14.2;12.5;9.0;4.5;;;;3.0;13.0;
78792;SPS30;68134;51.984;5.652;2023-11-19T03:10:44;15.7;13.8;9.9;4.9;;;;3.0;13.0;
78792;SPS30;68134;51.984;5.652;2023-11-19T03:13:14;14.4;12.7;9.2;4.6;;;;3.0;13.0;
78792;SPS30;68134;51.984;5.652;2023-11-19T03:15:44;15.7;13.9;10.1;5.1;;;;3.0;13.0;
78792;SPS30;68134;51.984;5.652;2023-11-19T03:18:14;15.6;13.9;10.2;5.4;;;;3.0;13.0;
78792;SPS30;68134;51.984;5.652;2023-11-19T03:20:43;16.8;15.0;11.0;5.8;;;;3.0;13.0;
78792;SPS30;68134;51.984;5.652;2023-11-19T03:23:11;18.3;16.1;11.5;5.6;;;;3.0;12.0;
78792;SPS30;68134;51.984;5.652;2023-11-19T03:25:40;17.5;15.5;11.1;5.6;;;;3.0;12.0;
78792;SPS30;68134;51.984;5.652;2023-11-19T03:28:09;15.4;13.6;9.7;4.8;;;;3.0;12.0;
78792;SPS30;68134;51.984;5.652;2023-11-19T03:30:39;15.5;13.7;9.9;5.0;;;;3.0;13.0;
78792;SPS30;68134;51.984;5.652;2023-11-19T03:33:08;15.6;13.8;10.0;5.1;;;;3.0;13.0;
78792;SPS30;68134;51.984;5.652;2023-11-19T03:35:38;18.4;16.3;11.8;6.0;;;;3.0;13.0;
78792;SPS30;68134;51.984;5.652;2023-11-19T03:38:07;14.7;13.0;9.5;5.0;;;;3.0;13.0;
78792;SPS30;68134;51.984;5.652;2023-11-19T03:40:35;17.7;15.7;11.5;6.2;;;;3.0;13.0;
78792;SPS30;68134;51.984;5.652;2023-11-19T03:43:05;17.0;15.0;10.8;5.4;;;;3.0;13.0;
78792;SPS30;68134;51.984;5.652;2023-11-19T03:45:35;17.4;15.4;11.1;5.7;;;;4.0;13.0;
78792;SPS30;68134;51.984;5.652;2023-11-19T03:48:05;15.5;13.7;9.9;4.9;;;;4.0;12.0;
78792;SPS30;68134;51.984;5.652;2023-11-19T03:50:33;18.1;16.0;11.6;5.9;;;;4.0;12.0;
78792;SPS30;68134;51.984;5.652;2023-11-19T03:53:02;15.3;13.5;9.8;4.9;;;;4.0;11.0;
78792;SPS30;68134;51.984;5.652;2023-11-19T03:55:32;19.7;17.4;12.6;6.5;;;;4.0;11.0;
78792;SPS30;68134;51.984;5.652;2023-11-19T03:58:01;18.9;16.6;11.9;5.9;;;;4.0;11.0;
78792;SPS30;68134;51.984;5.652;2023-11-19T04:00:29;18.6;16.4;11.7;5.7;;;;4.0;11.0;
78792;SPS30;68134;51.984;5.652;2023-11-19T04:02:58;16.1;14.3;10.4;5.5;;;;4.0;11.0;
78792;SPS30;68134;51.984;5.652;2023-11-19T04:05:27;15.3;13.6;9.9;5.2;;;;4.0;12.0;
78792;SPS30;68134;51.984;5.652;2023-11-19T04:07:55;20.2;17.7;12.5;5.8;;;;4.0;13.0;
78792;SPS30;68134;51.984;5.652;2023-11-19T04:10:23;20.9;18.3;12.9;6.0;;;;4.0;13.0;
78792;SPS30;68134;51.984;5.652;2023-11-19T04:12:53;19.0;16.7;11.8;5.4;;;;4.0;12.0;
78792;SPS30;68134;51.984;5.652;2023-11-19T04:15:22;15.2;13.5;9.7;4.9;;;;4.0;11.0;
78792;SPS30;68134;51.984;5.652;2023-11-19T04:17:52;16.9;14.9;10.7;5.3;;;;4.0;11.0;
78792;SPS30;68134;51.984;5.652;2023-11-19T04:20:21;14.9;13.2;9.5;4.9;;;;4.0;11.0;
78792;SPS30;68134;51.984;5.652;2023-11-19T04:22:50;16.3;14.5;10.5;5.3;;;;5.0;11.0;
78792;SPS30;68134;51.984;5.652;2023-11-19T04:25:19;16.6;14.7;10.6;5.3;;;;5.0;10.0;
78792;SPS30;68134;51.984;5.652;2023-11-19T04:27:49;19.7;17.4;12.4;6.0;;;;5.0;10.0;
78792;SPS30;68134;51.984;5.652;2023-11-19T04:30:18;15.9;14.1;10.2;5.1;;;;5.0;9.0;
78792;SPS30;68134;51.984;5.652;2023-11-19T04:32:46;15.4;13.6;9.8;4.9;;;;5.0;8.0;
78792;SPS30;68134;51.984;5.652;2023-11-19T04:35:15;17.9;15.9;11.4;5.7;;;;5.0;7.0;
78792;SPS30;68134;51.984;5.652;2023-11-19T04:37:45;18.8;16.5;11.7;5.6;;;;5.0;7.0;
78792;SPS30;68134;51.984;5.652;2023-11-19T04:40:13;19.9;17.6;12.5;6.1;;;;6.0;6.0;
78792;SPS30;68134;51.984;5.652;2023-11-19T04:42:44;19.4;17.1;12.3;6.2;;;;6.0;6.0;
78792;SPS30;68134;51.984;5.652;2023-11-19T04:45:12;16.6;14.6;10.4;5.1;;;;6.0;6.0;
78792;SPS30;68134;51.984;5.652;2023-11-19T04:47:42;16.6;14.6;10.5;5.1;;;;6.0;6.0;
78792;SPS30;68134;51.984;5.652;2023-11-19T04:50:11;17.4;15.4;11.2;5.7;;;;6.0;5.0;
78792;SPS30;68134;51.984;5.652;2023-11-19T04:52:39;22.9;20.0;14.0;6.4;;;;6.0;5.0;
78792;SPS30;68134;51.984;5.652;2023-11-19T04:55:12;18.7;16.4;11.7;5.6;;;;6.0;5.0;
78792;SPS30;68134;51.984;5.652;2023-11-19T04:57:40;20.6;18.2;13.0;6.4;;;;7.0;5.0;
78792;SPS30;68134;51.984;5.652;2023-11-19T05:00:09;16.0;14.1;10.3;5.3;;;;7.0;5.0;
78792;SPS30;68134;51.984;5.652;2023-11-19T05:02:39;16.7;14.8;10.7;5.5;;;;7.0;5.0;
78792;SPS30;68134;51.984;5.652;2023-11-19T05:05:08;18.9;16.6;11.9;5.8;;;;7.0;5.0;
78792;SPS30;68134;51.984;5.652;2023-11-19T05:07:37;17.4;15.5;11.3;5.8;;;;7.0;5.0;
78792;SPS30;68134;51.984;5.652;2023-11-19T05:10:06;18.4;16.3;11.8;6.0;;;;7.0;6.0;
78792;SPS30;68134;51.984;5.652;2023-11-19T05:12:35;17.6;15.6;11.3;5.8;;;;7.0;6.0;
78792;SPS30;68134;51.984;5.652;2023-11-19T05:15:05;21.2;18.7;13.4;6.5;;;;7.0;6.0;
78792;SPS30;68134;51.984;5.652;2023-11-19T05:17:34;18.1;16.0;11.6;5.9;;;;7.0;6.0;
78792;SPS30;68134;51.984;5.652;2023-11-19T05:20:04;18.7;16.5;11.8;5.8;;;;8.0;7.0;
78792;SPS30;68134;51.984;5.652;2023-11-19T05:22:38;18.4;16.1;11.4;5.4;;;;8.0;7.0;
78792;SPS30;68134;51.984;5.652;2023-11-19T05:25:07;18.7;16.4;11.5;5.3;;;;8.0;7.0;
78792;SPS30;68134;51.984;5.652;2023-11-19T05:27:36;17.9;15.8;11.3;5.6;;;;8.0;8.0;
78792;SPS30;68134;51.984;5.652;2023-11-19T05:30:05;19.2;16.9;11.9;5.5;;;;8.0;8.0;
78792;SPS30;68134;51.984;5.652;2023-11-19T05:32:36;17.3;15.2;10.8;5.2;;;;8.0;8.0;
78792;SPS30;68134;51.984;5.652;2023-11-19T05:35:06;20.1;17.6;12.4;5.9;;;;8.0;9.0;
78792;SPS30;68134;51.984;5.652;2023-11-19T05:37:35;21.3;18.7;13.3;6.4;;;;8.0;9.0;
78792;SPS30;68134;51.984;5.652;2023-11-19T05:40:05;17.4;15.4;11.0;5.4;;;;8.0;9.0;
78792;SPS30;68134;51.984;5.652;2023-11-19T05:42:39;20.3;17.9;12.7;6.0;;;;8.0;9.0;
78792;SPS30;68134;51.984;5.652;2023-11-19T05:45:09;19.5;17.2;12.3;6.1;;;;8.0;9.0;
78792;SPS30;68134;51.984;5.652;2023-11-19T05:47:40;18.8;16.6;12.0;6.0;;;;8.0;9.0;
78792;SPS30;68134;51.984;5.652;2023-11-19T05:50:10;18.4;16.2;11.7;5.8;;;;8.0;9.0;
78792;SPS30;68134;51.984;5.652;2023-11-19T05:52:40;20.9;18.4;12.9;6.0;;;;8.0;9.0;
78792;SPS30;68134;51.984;5.652;2023-11-19T05:55:09;21.5;18.9;13.3;6.2;;;;8.0;9.0;
78792;SPS30;68134;51.984;5.652;2023-11-19T05:57:39;16.9;14.9;10.7;5.3;;;;8.0;9.0;
78792;SPS30;68134;51.984;5.652;2023-11-19T06:00:08;19.1;16.8;11.9;5.7;;;;8.0;9.0;
78792;SPS30;68134;51.984;5.652;2023-11-19T06:02:41;21.4;18.7;12.9;5.6;;;;8.0;9.0;
78792;SPS30;68134;51.984;5.652;2023-11-19T06:05:10;20.7;18.1;12.6;5.6;;;;8.0;9.0;
78792;SPS30;68134;51.984;5.652;2023-11-19T06:07:38;20.7;18.3;13.1;6.4;;;;8.0;10.0;
78792;SPS30;68134;51.984;5.652;2023-11-19T06:10:07;17.9;15.8;11.2;5.3;;;;8.0;10.0;
78792;SPS30;68134;51.984;5.652;2023-11-19T06:12:37;20.0;17.6;12.5;6.1;;;;8.0;10.0;
78792;SPS30;68134;51.984;5.652;2023-11-19T06:15:07;19.6;17.3;12.3;6.0;;;;8.0;10.0;
78792;SPS30;68134;51.984;5.652;2023-11-19T06:17:37;17.7;15.6;11.1;5.4;;;;8.0;9.0;
78792;SPS30;68134;51.984;5.652;2023-11-19T06:20:06;20.4;17.9;12.6;5.9;;;;8.0;9.0;
78792;SPS30;68134;51.984;5.652;2023-11-19T06:22:35;19.2;16.9;12.1;5.9;;;;8.0;9.0;
78792;SPS30;68134;51.984;5.652;2023-11-19T06:25:04;20.8;18.3;13.0;6.2;;;;8.0;9.0;
78792;SPS30;68134;51.984;5.652;2023-11-19T06:27:33;18.4;16.2;11.7;5.8;;;;8.0;9.0;
78792;SPS30;68134;51.984;5.652;2023-11-19T06:30:02;22.0;19.3;13.5;6.2;;;;8.0;10.0;
78792;SPS30;68134;51.984;5.652;2023-11-19T06:32:31;19.9;17.4;12.3;5.7;;;;8.0;9.0;
78792;SPS30;68134;51.984;5.652;2023-11-19T06:35:00;21.4;18.7;13.2;6.1;;;;9.0;9.0;
78792;SPS30;68134;51.984;5.652;2023-11-19T06:37:30;22.1;19.3;13.4;6.0;;;;9.0;9.0;
78792;SPS30;68134;51.984;5.652;2023-11-19T06:39:59;18.1;15.9;11.2;5.2;;;;9.0;9.0;
78792;SPS30;68134;51.984;5.652;2023-11-19T06:42:28;19.7;17.3;12.1;5.6;;;;9.0;9.0;
78792;SPS30;68134;51.984;5.652;2023-11-19T06:44:57;19.1;16.8;11.9;5.7;;;;9.0;9.0;
78792;SPS30;68134;51.984;5.652;2023-11-19T06:47:26;21.6;18.9;13.3;6.1;;;;9.0;9.0;
78792;SPS30;68134;51.984;5.652;2023-11-19T06:49:56;21.4;18.8;13.2;6.1;;;;9.0;9.0;
78792;SPS30;68134;51.984;5.652;2023-11-19T06:52:24;18.0;15.9;11.4;5.6;;;;9.0;9.0;
78792;SPS30;68134;51.984;5.652;2023-11-19T06:54:52;19.9;17.4;12.3;5.8;;;;9.0;10.0;
78792;SPS30;68134;51.984;5.652;2023-11-19T06:57:22;19.6;17.2;12.1;5.6;;;;9.0;10.0;
78792;SPS30;68134;51.984;5.652;2023-11-19T06:59:54;23.3;20.5;14.4;6.7;;;;9.0;10.0;
78792;SPS30;68134;51.984;5.652;2023-11-19T07:02:22;21.2;18.6;13.2;6.2;;;;9.0;11.0;
78792;SPS30;68134;51.984;5.652;2023-11-19T07:04:51;21.9;19.2;13.7;6.5;;;;9.0;11.0;
78792;SPS30;68134;51.984;5.652;2023-11-19T07:07:20;19.4;17.0;11.9;5.4;;;;9.0;12.0;
78792;SPS30;68134;51.984;5.652;2023-11-19T07:09:49;23.5;20.6;14.5;6.6;;;;9.0;12.0;
78792;SPS30;68134;51.984;5.652;2023-11-19T07:12:18;18.4;16.1;11.4;5.3;;;;9.0;12.0;
78792;SPS30;68134;51.984;5.652;2023-11-19T07:14:48;20.9;18.3;13.0;6.2;;;;9.0;13.0;
78792;SPS30;68134;51.984;5.652;2023-11-19T07:17:16;20.8;18.2;12.9;6.1;;;;9.0;14.0;
78792;SPS30;68134;51.984;5.652;2023-11-19T07:19:46;19.6;17.3;12.3;5.9;;;;9.0;15.0;
78792;SPS30;68134;51.984;5.652;2023-11-19T07:22:15;19.5;17.1;12.1;5.7;;;;9.0;17.0;
78792;SPS30;68134;51.984;5.652;2023-11-19T07:24:43;18.7;16.5;11.8;5.8;;;;9.0;19.0;
78792;SPS30;68134;51.984;5.652;2023-11-19T07:27:14;20.6;18.1;12.8;6.1;;;;9.0;22.0;
78792;SPS30;68134;51.984;5.652;2023-11-19T07:29:44;21.0;18.4;13.0;6.1;;;;8.0;25.0;
78792;SPS30;68134;51.984;5.652;2023-11-19T07:32:14;18.4;16.2;11.6;5.7;;;;8.0;28.0;
78792;SPS30;68134;51.984;5.652;2023-11-19T07:34:44;18.9;16.7;12.0;5.9;;;;8.0;31.0;
78792;SPS30;68134;51.984;5.652;2023-11-19T07:37:13;19.9;17.5;12.5;6.2;;;;8.0;31.0;
78792;SPS30;68134;51.984;5.652;2023-11-19T07:39:43;16.4;14.4;10.3;5.0;;;;8.0;30.0;
78792;SPS30;68134;51.984;5.652;2023-11-19T07:42:11;19.2;17.0;12.2;6.0;;;;8.0;31.0;
78792;SPS30;68134;51.984;5.652;2023-11-19T07:44:40;21.0;18.5;13.2;6.5;;;;8.0;33.0;
78792;SPS30;68134;51.984;5.652;2023-11-19T07:47:09;20.0;17.6;12.5;5.9;;;;8.0;32.0;
78792;SPS30;68134;51.984;5.652;2023-11-19T07:49:38;19.9;17.6;12.6;6.2;;;;7.0;31.0;
78792;SPS30;68134;51.984;5.652;2023-11-19T07:52:09;19.0;16.8;12.1;6.1;;;;7.0;28.0;
78792;SPS30;68134;51.984;5.652;2023-11-19T07:54:38;19.9;17.5;12.5;6.1;;;;7.0;26.0;
78792;SPS30;68134;51.984;5.652;2023-11-19T07:57:06;19.1;16.7;11.8;5.5;;;;7.0;25.0;
78792;SPS30;68134;51.984;5.652;2023-11-19T07:59:35;19.6;17.2;12.1;5.7;;;;7.0;25.0;
78792;SPS30;68134;51.984;5.652;2023-11-19T08:02:04;20.7;18.2;12.7;5.7;;;;7.0;25.0;
78792;SPS30;68134;51.984;5.652;2023-11-19T08:04:33;22.4;19.6;13.8;6.5;;;;7.0;25.0;
78792;SPS30;68134;51.984;5.652;2023-11-19T08:07:02;20.9;18.3;12.9;6.1;;;;7.0;25.0;
78792;SPS30;68134;51.984;5.652;2023-11-19T08:09:30;19.9;17.4;12.3;5.7;;;;7.0;25.0;
78792;SPS30;68134;51.984;5.652;2023-11-19T08:11:59;20.7;18.2;12.8;6.1;;;;7.0;26.0;
78792;SPS30;68134;51.984;5.652;2023-11-19T08:14:27;20.0;17.7;12.7;6.3;;;;7.0;26.0;
78792;SPS30;68134;51.984;5.652;2023-11-19T08:16:56;19.2;17.0;12.2;6.1;;;;7.0;26.0;
78792;SPS30;68134;51.984;5.652;2023-11-19T08:19:25;18.3;16.2;11.5;5.6;;;;7.0;26.0;
78792;SPS30;68134;51.984;5.652;2023-11-19T08:21:53;16.4;14.5;10.2;4.8;;;;7.0;26.0;
78792;SPS30;68134;51.984;5.652;2023-11-19T08:24:22;20.5;18.1;13.1;6.7;;;;7.0;26.0;
78792;SPS30;68134;51.984;5.652;2023-11-19T08:26:50;18.4;16.5;12.3;7.0;;;;7.0;27.0;
78792;SPS30;68134;51.984;5.652;2023-11-19T08:29:19;15.0;13.4;10.2;6.0;;;;7.0;31.0;
78792;SPS30;68134;51.984;5.652;2023-11-19T08:31:48;17.3;15.3;11.1;5.7;;;;6.0;30.0;
78792;SPS30;68134;51.984;5.652;2023-11-19T08:34:16;16.0;14.2;10.4;5.4;;;;6.0;29.0;
78792;SPS30;68134;51.984;5.652;2023-11-19T08:36:45;14.4;12.7;9.3;4.9;;;;6.0;26.0;
78792;SPS30;68134;51.984;5.652;2023-11-19T08:39:13;18.7;16.5;11.8;5.8;;;;6.0;24.0;
78792;SPS30;68134;51.984;5.652;2023-11-19T08:41:43;18.6;16.3;11.5;5.4;;;;6.0;24.0;
78792;SPS30;68134;51.984;5.652;2023-11-19T08:44:11;18.6;16.4;11.8;5.9;;;;6.0;23.0;
78792;SPS30;68134;51.984;5.652;2023-11-19T08:46:40;18.1;16.2;12.2;7.0;;;;6.0;24.0;
78792;SPS30;68134;51.984;5.652;2023-11-19T08:49:18;16.6;14.8;11.0;6.1;;;;6.0;27.0;
78792;SPS30;68134;51.984;5.652;2023-11-19T08:51:46;16.5;14.6;10.5;5.3;;;;6.0;27.0;
78792;SPS30;68134;51.984;5.652;2023-11-19T08:54:15;17.6;15.5;11.1;5.4;;;;6.0;26.0;
78792;SPS30;68134;51.984;5.652;2023-11-19T08:56:43;16.7;14.8;10.9;5.9;;;;6.0;26.0;
78792;SPS30;68134;51.984;5.652;2023-11-19T08:59:12;16.9;14.9;10.8;5.4;;;;6.0;26.0;
78792;SPS30;68134;51.984;5.652;2023-11-19T09:01:41;17.9;15.7;11.1;5.3;;;;6.0;25.0;
78792;SPS30;68134;51.984;5.652;2023-11-19T09:04:09;16.3;14.4;10.3;5.0;;;;6.0;24.0;
78792;SPS30;68134;51.984;5.652;2023-11-19T09:06:39;16.2;14.3;10.2;5.0;;;;6.0;23.0;
78792;SPS30;68134;51.984;5.652;2023-11-19T09:09:10;17.4;15.4;11.0;5.3;;;;6.0;22.0;
78792;SPS30;68134;51.984;5.652;2023-11-19T09:11:39;18.6;16.3;11.4;5.3;;;;6.0;21.0;
78792;SPS30;68134;51.984;5.652;2023-11-19T09:14:08;16.7;14.7;10.3;4.8;;;;6.0;20.0;
78792;SPS30;68134;51.984;5.652;2023-11-19T09:16:37;16.8;14.8;10.5;5.1;;;;6.0;20.0;
78792;SPS30;68134;51.984;5.652;2023-11-19T09:19:05;15.1;13.3;9.6;4.8;;;;5.0;20.0;
78792;SPS30;68134;51.984;5.652;2023-11-19T09:21:34;16.9;14.8;10.5;4.9;;;;5.0;19.0;
78792;SPS30;68134;51.984;5.652;2023-11-19T09:24:05;19.9;17.4;12.1;5.4;;;;5.0;19.0;
78792;SPS30;68134;51.984;5.652;2023-11-19T09:26:34;18.3;16.1;11.5;5.5;;;;5.0;19.0;
78792;SPS30;68134;51.984;5.652;2023-11-19T09:29:06;17.0;15.0;10.7;5.2;;;;5.0;18.0;
78792;SPS30;68134;51.984;5.652;2023-11-19T09:31:35;17.6;15.5;11.1;5.4;;;;5.0;18.0;
78792;SPS30;68134;51.984;5.652;2023-11-19T09:34:06;16.5;14.5;10.3;4.9;;;;5.0;18.0;
78792;SPS30;68134;51.984;5.652;2023-11-19T09:36:35;17.8;15.7;11.0;5.2;;;;5.0;17.0;
78792;SPS30;68134;51.984;5.652;2023-11-19T09:39:05;17.4;15.2;10.7;4.9;;;;5.0;17.0;
78792;SPS30;68134;51.984;5.652;2023-11-19T09:41:34;18.8;16.5;11.7;5.5;;;;5.0;17.0;
78792;SPS30;68134;51.984;5.652;2023-11-19T09:44:03;19.3;17.0;12.0;5.6;;;;5.0;17.0;
78792;SPS30;68134;51.984;5.652;2023-11-19T09:46:32;21.8;19.1;13.4;6.1;;;;5.0;17.0;
78792;SPS30;68134;51.984;5.652;2023-11-19T09:49:03;17.0;14.9;10.6;5.0;;;;5.0;17.0;
78792;SPS30;68134;51.984;5.652;2023-11-19T09:51:34;18.7;16.5;11.8;5.8;;;;5.0;18.0;
78792;SPS30;68134;51.984;5.652;2023-11-19T09:54:04;16.6;14.6;10.3;4.9;;;;5.0;18.0;
78792;SPS30;68134;51.984;5.652;2023-11-19T09:56:33;19.4;17.0;11.9;5.4;;;;5.0;18.0;
78792;SPS30;68134;51.984;5.652;2023-11-19T09:59:05;18.7;16.5;11.7;5.6;;;;5.0;19.0;
78792;SPS30;68134;51.984;5.652;2023-11-19T10:01:37;17.2;15.2;11.0;5.5;;;;5.0;20.0;
78792;SPS30;68134;51.984;5.652;2023-11-19T10:04:09;17.8;15.7;11.1;5.4;;;;5.0;20.0;
78792;SPS30;68134;51.984;5.652;2023-11-19T10:06:42;21.2;18.5;12.8;5.6;;;;5.0;21.0;
78792;SPS30;68134;51.984;5.652;2023-11-19T10:09:11;18.2;16.0;11.2;5.2;;;;5.0;20.0;
78792;SPS30;68134;51.984;5.652;2023-11-19T10:11:41;19.8;17.3;12.1;5.4;;;;5.0;20.0;
78792;SPS30;68134;51.984;5.652;2023-11-19T10:14:10;16.3;14.3;10.0;4.6;;;;5.0;19.0;
78792;SPS30;68134;51.984;5.652;2023-11-19T10:16:38;15.4;13.6;9.7;4.8;;;;4.0;19.0;
78792;SPS30;68134;51.984;5.652;2023-11-19T10:19:07;17.9;15.7;11.1;5.2;;;;4.0;19.0;
78792;SPS30;68134;51.984;5.652;2023-11-19T10:21:36;17.4;15.3;10.9;5.2;;;;4.0;19.0;
78792;SPS30;68134;51.984;5.652;2023-11-19T10:24:05;15.8;14.1;10.4;5.6;;;;4.0;19.0;
78792;SPS30;68134;51.984;5.652;2023-11-19T10:26:33;16.0;14.1;10.1;5.0;;;;4.0;19.0;
78792;SPS30;68134;51.984;5.652;2023-11-19T10:29:04;18.0;15.8;11.3;5.4;;;;4.0;19.0;
78792;SPS30;68134;51.984;5.652;2023-11-19T10:31:33;19.9;17.4;12.3;5.8;;;;4.0;19.0;
78792;SPS30;68134;51.984;5.652;2023-11-19T10:34:01;16.9;14.8;10.4;4.8;;;;4.0;19.0;
78792;SPS30;68134;51.984;5.652;2023-11-19T10:36:38;16.8;14.8;10.4;4.9;;;;4.0;20.0;
78792;SPS30;68134;51.984;5.652;2023-11-19T10:39:09;17.5;15.5;11.0;5.3;;;;4.0;21.0;
78792;SPS30;68134;51.984;5.652;2023-11-19T10:41:40;16.7;14.7;10.5;5.1;;;;4.0;20.0;
78792;SPS30;68134;51.984;5.652;2023-11-19T10:44:09;17.9;15.7;11.2;5.4;;;;4.0;20.0;
78792;SPS30;68134;51.984;5.652;2023-11-19T10:46:40;16.0;14.1;10.1;4.9;;;;4.0;19.0;
78792;SPS30;68134;51.984;5.652;2023-11-19T10:49:10;16.0;14.0;9.9;4.5;;;;4.0;18.0;
78792;SPS30;68134;51.984;5.652;2023-11-19T10:51:39;18.0;15.8;11.1;5.2;;;;4.0;17.0;
78792;SPS30;68134;51.984;5.652;2023-11-19T10:54:15;16.2;14.2;10.0;4.6;;;;4.0;17.0;
78792;SPS30;68134;51.984;5.652;2023-11-19T10:56:47;16.2;14.2;9.9;4.5;;;;4.0;16.0;
78792;SPS30;68134;51.984;5.652;2023-11-19T10:59:25;17.1;15.0;10.5;4.9;;;;4.0;17.0;
78792;SPS30;68134;51.984;5.652;2023-11-19T11:01:54;17.1;15.0;10.5;4.8;;;;4.0;20.0;
78792;SPS30;68134;51.984;5.652;2023-11-19T11:04:25;15.9;14.0;9.9;4.7;;;;4.0;20.0;
78792;SPS30;68134;51.984;5.652;2023-11-19T11:07:01;15.7;13.9;10.0;5.0;;;;4.0;20.0;
78792;SPS30;68134;51.984;5.652;2023-11-19T11:09:31;17.4;15.3;10.8;5.1;;;;4.0;21.0;
78792;SPS30;68134;51.984;5.652;2023-11-19T11:12:00;16.1;14.1;9.9;4.5;;;;4.0;20.0;
78792;SPS30;68134;51.984;5.652;2023-11-19T11:14:31;13.7;12.0;8.6;4.1;;;;4.0;20.0;
78792;SPS30;68134;51.984;5.652;2023-11-19T11:17:02;14.7;12.9;9.0;4.2;;;;3.0;20.0;
78792;SPS30;68134;51.984;5.652;2023-11-19T11:19:33;14.9;13.1;9.2;4.3;;;;3.0;20.0;
78792;SPS30;68134;51.984;5.652;2023-11-19T11:22:04;17.3;15.2;10.7;4.9;;;;3.0;20.0;
78792;SPS30;68134;51.984;5.652;2023-11-19T11:24:48;21.9;19.1;13.3;6.0;;;;3.0;20.0;
78792;SPS30;68134;51.984;5.652;2023-11-19T11:27:48;16.4;14.4;10.3;5.0;;;;3.0;18.0;
78792;SPS30;68134;51.984;5.652;2023-11-19T11:30:28;17.1;15.1;10.8;5.2;;;;3.0;17.0;
78792;SPS30;68134;51.984;5.652;2023-11-19T11:33:04;20.2;17.6;12.2;5.4;;;;3.0;17.0;
78792;SPS30;68134;51.984;5.652;2023-11-19T11:35:43;19.1;16.8;11.9;5.6;;;;3.0;17.0;
78792;SPS30;68134;51.984;5.652;2023-11-19T11:38:22;16.4;14.4;10.2;4.8;;;;3.0;17.0;
78792;SPS30;68134;51.984;5.652;2023-11-19T11:43:49;16.2;14.3;10.1;4.8;;;;3.0;17.0;
78792;SPS30;68134;51.984;5.652;2023-11-19T11:49:27;16.1;14.1;10.0;4.7;;;;3.0;18.0;
78792;SPS30;68134;51.984;5.652;2023-11-19T11:52:01;15.9;14.0;10.0;4.8;;;;3.0;18.0;
78792;SPS30;68134;51.984;5.652;2023-11-19T11:54:34;15.0;13.2;9.4;4.5;;;;3.0;19.0;
78792;SPS30;68134;51.984;5.652;2023-11-19T11:57:12;13.7;12.1;8.7;4.4;;;;3.0;21.0;
78792;SPS30;68134;51.984;5.652;2023-11-19T11:59:44;13.4;11.9;8.6;4.4;;;;3.0;20.0;
78792;SPS30;68134;51.984;5.652;2023-11-19T12:02:14;13.6;12.0;8.5;4.2;;;;3.0;19.0;
78792;SPS30;68134;51.984;5.652;2023-11-19T12:04:45;11.1;9.8;7.1;3.7;;;;3.0;18.0;
78792;SPS30;68134;51.984;5.652;2023-11-19T12:07:18;12.3;10.9;7.8;3.9;;;;3.0;17.0;
78792;SPS30;68134;51.984;5.652;2023-11-19T12:09:50;12.0;10.6;7.5;3.7;;;;3.0;16.0;
78792;SPS30;68134;51.984;5.652;2023-11-19T12:12:23;12.2;10.7;7.6;3.7;;;;3.0;14.0;